»·PEaware :: N6346P KCMA-KSNA

N6346P :: KCMA-KSNA

FLIGHT INFORMATION

Flight Status: Arrived
Operator: Privately registered:
United States
More flights under this callsign
Pilot: Julio S. (28535)
Aircraft: CESSNA 152 AEROBAT
(C152)
More flights by this aircraft type
Origin: KCMA Camarillo
United States
Destination: KSNA John Wayne-Orange Co
United States
More flights between these airports :: More routes between these airports
Route: +LAX VPLVT
File this flight plan on PilotEdge
Remarks: Test run of CAT-10. If possible would like to know if it was a pass. Thanks
Altitude:
(Current/Filed)
3,500ft
Speed:
(Current/Filed)
97kts
Departed: 23-May-20 12:47 PM
Arrived: 23-May-20 01:52 PM
Distance/Time
Traveled:
69nm/1:04
Distance/Time
To Go:
Arrived

Flight Plot

Page will automatically refresh every two minutes.


Map Options




Map Legend


Flown Route
Filed Route
Departure Airport
Arrival Airport
Navaid (VOR, NDB)
Fix

Horizontal Profiles

Position Reports

Time Latitude Longitude Heading Altitude Ground
Speed
23-May-20 12:31 34.210350 -119.076467 90 79ft 0kts
23-May-20 12:32 34.210350 -119.076467 90 79ft 0kts
23-May-20 12:33 34.210350 -119.076467 90 79ft 0kts
23-May-20 12:34 34.210350 -119.076467 90 79ft 0kts
23-May-20 12:35 34.210350 -119.076467 90 79ft 0kts
23-May-20 12:36 34.210350 -119.076467 90 79ft 0kts
23-May-20 12:37 34.210350 -119.076467 90 79ft 0kts
23-May-20 12:38 34.210350 -119.076467 90 79ft 0kts
23-May-20 12:39 34.210350 -119.076467 90 79ft 0kts
23-May-20 12:40 34.210824 -119.076552 282 79ft 13kts
23-May-20 12:41 34.210913 -119.082905 272 76ft 23kts
23-May-20 12:42 34.212821 -119.084627 2 76ft 0kts
23-May-20 12:43 34.212821 -119.084627 2 76ft 0kts
23-May-20 12:44 34.212821 -119.084627 2 76ft 0kts
23-May-20 12:45 34.213682 -119.085445 265 76ft 25kts
23-May-20 12:46 34.214265 -119.108459 271 663ft 81kts
23-May-20 12:47 34.203819 -119.094960 91 1046ft 117kts
23-May-20 12:48 34.202458 -119.060537 96 1034ft 99kts
23-May-20 12:49 34.197168 -119.027352 106 1069ft 99kts
23-May-20 12:50 34.187282 -118.996370 123 1229ft 93kts
23-May-20 12:51 34.177523 -118.968180 109 1634ft 92kts
23-May-20 12:52 34.164368 -118.944078 177 2217ft 91kts
23-May-20 12:53 34.148118 -118.918294 127 2918ft 105kts
23-May-20 12:54 34.131517 -118.889859 133 3569ft 105kts
23-May-20 12:55 34.116372 -118.862682 95 4100ft 111kts
23-May-20 12:56 34.120970 -118.834455 79 4556ft 104kts
23-May-20 12:57 34.123552 -118.807784 95 4785ft 105kts
23-May-20 12:58 34.118616 -118.780312 106 5014ft 104kts
23-May-20 12:59 34.112753 -118.753611 108 5167ft 106kts
23-May-20 13:00 34.107242 -118.727033 101 5324ft 106kts
23-May-20 13:01 34.104529 -118.699102 96 5280ft 120kts
23-May-20 13:02 34.099746 -118.670921 107 5401ft 109kts
23-May-20 13:03 34.096436 -118.641946 76 5302ft 123kts
23-May-20 13:04 34.106331 -118.616234 64 5438ft 106kts
23-May-20 13:05 34.115859 -118.593873 37 5429ft 111kts
23-May-20 13:06 34.133162 -118.580202 29 5414ft 110kts
23-May-20 13:07 34.151031 -118.566632 30 5401ft 111kts
23-May-20 13:08 34.166827 -118.549151 66 5378ft 111kts
23-May-20 13:09 34.158285 -118.529434 149 5436ft 99kts
23-May-20 13:10 34.142079 -118.514266 141 5225ft 99kts
23-May-20 13:11 34.127104 -118.499676 164 5375ft 84kts
23-May-20 13:12 34.108706 -118.490050 163 5507ft 93kts
23-May-20 13:13 34.087804 -118.483767 175 5541ft 104kts
23-May-20 13:14 34.064663 -118.480181 179 5504ft 104kts
23-May-20 13:15 34.042365 -118.472964 166 5439ft 105kts
23-May-20 13:16 34.020176 -118.464428 171 5411ft 102kts
23-May-20 13:18 33.998126 -118.458264 172 5444ft 102kts
23-May-20 13:19 33.974328 -118.451128 163 5507ft 103kts
23-May-20 13:20 33.954837 -118.441387 157 5554ft 105kts
23-May-20 13:21 33.934445 -118.430737 168 5411ft 114kts
23-May-20 13:22 33.915984 -118.415275 150 5429ft 106kts
23-May-20 13:23 33.897345 -118.400089 153 5459ft 101kts
23-May-20 13:24 33.879026 -118.384670 150 5499ft 103kts
23-May-20 13:25 33.860037 -118.368395 145 5524ft 103kts
23-May-20 13:26 33.841544 -118.352021 148 5552ft 103kts
23-May-20 13:27 33.823327 -118.337293 147 5556ft 104kts
23-May-20 13:28 33.805068 -118.320374 149 5487ft 105kts
23-May-20 13:29 33.786936 -118.303939 144 5461ft 105kts
23-May-20 13:30 33.768801 -118.287484 143 5432ft 105kts
23-May-20 13:31 33.749034 -118.272380 150 5410ft 105kts
23-May-20 13:32 33.735172 -118.251577 84 5356ft 104kts
23-May-20 13:32 33.735782 -118.232172 84 5514ft 94kts
23-May-20 13:34 33.737732 -118.206346 84 5520ft 100kts
23-May-20 13:35 33.739144 -118.182228 81 5513ft 90kts
23-May-20 13:35 33.735498 -118.164586 113 5551ft 90kts
23-May-20 13:36 33.731891 -118.142675 98 5443ft 109kts
23-May-20 13:38 33.730277 -118.112971 91 5448ft 102kts
23-May-20 13:38 33.731471 -118.093495 90 5551ft 102kts
23-May-20 13:39 33.728458 -118.069301 101 5531ft 106kts
23-May-20 13:40 33.726946 -118.044249 88 5496ft 106kts
23-May-20 13:41 33.726840 -118.019560 99 5465ft 105kts
23-May-20 13:42 33.725182 -117.995078 97 5455ft 105kts
23-May-20 13:43 33.722990 -117.970817 82 5394ft 105kts
23-May-20 13:44 33.723579 -117.947430 97 4829ft 110kts
23-May-20 13:45 33.719494 -117.922369 117 4013ft 104kts
23-May-20 13:46 33.715702 -117.892782 109 2852ft 88kts
23-May-20 13:47 33.708468 -117.869698 124 1922ft 94kts
23-May-20 13:48 33.698523 -117.855318 194 1193ft 65kts
23-May-20 13:49 33.685753 -117.862376 209 204ft 48kts
23-May-20 13:50 33.677244 -117.867806 205 61ft 41kts
23-May-20 13:51 33.675232 -117.868735 173 60ft 0kts
23-May-20 13:52 33.674251 -117.868306 127 60ft 11kts
23-May-20 13:53 33.673606 -117.866890 118 60ft 0kts
23-May-20 13:54 33.673746 -117.865540 118 60ft 8kts
23-May-20 13:55 33.673730 -117.865504 118 60ft 0kts
23-May-20 13:56 33.673730 -117.865504 118 60ft 0kts

Navigation Log

Ident Type
Flight plan parsing failed, navigation log unavailable